Terminal Aerodrome Forecast
Issued by NWS

Home | Current Version | Previous Version | Text Only | Print | Product List | Glossary On
Versions: 1 2 3 4 5 6 7 8 9 10 11 12
000
FTUS45 KREV 250528
TAFTRK
TAF
KTRK 250528Z 2506/2606 VRB03KT P6SM VCSH SCT015 BKN025 OVC035
     FM250800 VRB03KT P6SM SCT025 BKN040
     FM251100 00000KT P6SM VCFG SCT030 BKN110
     FM251500 VRB04KT P6SM SCT040 BKN120
     FM252000 30008KT P6SM FEW060 BKN120
     FM260200 VRB03KT P6SM SCT040 BKN110=

USA.gov is the U.S. government's official web portal to all federal, state and local government web resources and services.